Kleberg, Texas
Current Conditions -  °F | °C
As of 4:15 AM on Saturday 20 Dec 2014 (Local Time) from KHQZ Reporting Station
Overcast Overcast  
Wind Chill: 41°   Ceiling: 200
Heat Index: 45°   Visibility: 1.7mi
Dew Point: 44°   Wind: 7mph
Humidity: 97%   Direction: 340°NNW
Pressure: 30.22"   Gusts: NA
Location:  32.6719°N, 96.62°W
Report Text: KHQZ 201015Z AUTO 34006KT 1 3/4SM OVC002 07/07 A3022 RMK AO1 T00730068
Loading
Personal Weather Stations






























Interactive Weather Map New forecast layout! Learn more

10-Day Weather Forecast

Advertisements
Track Severe Weather on mobile